RKTY/YEC METAR and TAF weather

Enter ICAO airport designator
Station Type Date Time Source
RKTY METAR 2021/07/26 12:47 UTC NOAA

RKTY 261247Z 04003KT 9999 FEW050 FEW200 26/23 A2970


Station Type Date Time Source
RKTY Decoded METAR 2021/07/26 12:47 UTC NOAA

Yechon Ab, Korea, South (RKTY) 36-38N 128-21E 120M
Jul 26, 2021 - 08:47 AM EDT / 2021.07.26 1247 UTC
Wind: from the NE (040 degrees) at 3 MPH (3 KT):0
Visibility: greater than 7 mile(s):0
Sky conditions: mostly clear
Temperature: 78 F (26 C)
Dew Point: 73 F (23 C)
Relative Humidity: 83%
Pressure (altimeter): 29.7 in. Hg (1005 hPa)
ob: RKTY 261247Z 04003KT 9999 FEW050 FEW200 26/23 A2970
cycle: 13

Station Type Date Time Source
RKTY TAF 2013/10/14 21:45 UTC NOAA

TAF
AMD TAF
AMD RKTY 142130Z 1421/1524 09006KT 1600 BR FEW005 SCT030
BECMG 1422/1423 09006KT 4800 BR BKN030 BKN200
BECMG 1503/1504 09006KT 8000 -RA BR SCT015 OVC030
BECMG 1513/1514 09006KT 9999 NSW BKN030 TX17/1506Z TN07/1521Z

Example: see airport list